Time;durP1;ratioP1;P1;durP2;ratioP2;P2;SDS_P1;SDS_P2;PMS_P1;PMS_P2;Temp;Humidity;BMP_temperature;BMP_pressure;BME280_temperature;BME280_humidity;BME280_pressure;Samples;Min_cycle;Max_cycle;Signal;HPM_P1;HPM_P2
2022/01/21 00:00:29;;;;;;;65.43;48.63;;;;;;;12.23;43.91;101708.69;143720;585;47006;-72
2022/01/21 00:02:55;;;;;;;67.28;48.78;;;;;;;12.21;43.46;101699.97;143717;665;46922;-71
2022/01/21 00:05:23;;;;;;;67.93;50.33;;;;;;;12.21;43.76;101708.03;143720;672;46008;-71
2022/01/21 00:07:49;;;;;;;70.70;51.58;;;;;;;12.23;42.94;101707.87;143715;599;47012;-71
2022/01/21 00:10:16;;;;;;;67.53;50.65;;;;;;;12.23;43.22;101711.37;143719;572;47006;-71
2022/01/21 00:12:43;;;;;;;73.18;50.20;;;;;;;12.19;43.76;101704.69;143718;606;46008;-71
2022/01/21 00:15:11;;;;;;;68.72;49.47;;;;;;;12.11;43.96;101700.22;143716;740;47006;-71
2022/01/21 00:17:38;;;;;;;94.75;66.65;;;;;;;12.06;43.91;101699.97;143718;582;46923;-71
2022/01/21 00:31:05;;;;;;;67.47;45.10;;;;;;;12.03;44.25;101694.94;143717;613;46008;-72
2022/01/21 00:33:31;;;;;;;66.07;45.67;;;;;;;11.97;44.40;101693.81;143718;668;47006;-72
2022/01/21 00:35:59;;;;;;;63.47;46.95;;;;;;;11.98;44.26;101695.50;143715;584;47002;-71
2022/01/21 00:38:27;;;;;;;69.18;50.70;;;;;;;12.00;44.32;101684.53;143717;581;47008;-71
2022/01/21 00:40:57;;;;;;;77.65;58.35;;;;;;;11.94;44.74;101686.09;143715;669;47002;-71
2022/01/21 00:43:43;;;;;;;79.90;55.90;;;;;;;11.89;45.10;101675.03;143717;569;46924;-71
2022/01/21 00:46:10;;;;;;;74.22;51.83;;;;;;;11.86;44.84;101686.16;143715;588;47002;-72
2022/01/21 00:48:37;;;;;;;66.28;50.85;;;;;;;11.91;44.78;101683.75;143715;614;47010;-72
2022/01/21 00:51:03;;;;;;;75.60;52.40;;;;;;;11.92;44.87;101689.97;143716;669;47004;-72
2022/01/21 00:53:30;;;;;;;57.62;43.05;;;;;;;11.95;44.59;101679.69;143715;605;47006;-72
2022/01/21 00:55:56;;;;;;;61.58;40.83;;;;;;;12.03;44.30;101683.31;143717;604;47002;-72
2022/01/21 00:58:22;;;;;;;77.00;43.38;;;;;;;11.98;45.18;101673.09;143718;605;46023;-72
2022/01/21 01:00:49;;;;;;;64.95;42.60;;;;;;;11.99;44.61;101677.47;143715;616;47004;-72
2022/01/21 01:03:19;;;;;;;59.97;38.55;;;;;;;12.03;45.03;101677.94;143716;628;46924;-71
2022/01/21 01:05:47;;;;;;;60.08;39.90;;;;;;;12.04;44.96;101683.16;143715;660;47002;-71
2022/01/21 01:08:13;;;;;;;54.10;39.13;;;;;;;12.06;44.67;101680.28;143719;624;46004;-71
2022/01/21 01:10:48;;;;;;;54.55;40.05;;;;;;;12.10;45.03;101670.81;143717;637;47002;-71
2022/01/21 01:21:27;;;;;;;57.03;39.47;;;;;;;12.11;45.20;101664.41;143716;620;47002;-71
2022/01/21 01:27:35;;;;;;;49.55;35.25;;;;;;;12.07;44.41;101666.63;143717;614;46924;-71
2022/01/21 01:29:46;;;;;;;45.08;32.47;;;;;;;12.16;45.00;101645.00;143717;588;47008;-71
2022/01/21 01:32:13;;;;;;;44.67;30.90;;;;;;;12.17;44.91;101654.75;143713;602;47004;-71
2022/01/21 01:34:39;;;;;;;45.42;32.40;;;;;;;12.12;45.58;101636.47;143717;565;47006;-71
2022/01/21 01:37:13;;;;;;;41.45;28.87;;;;;;;12.08;45.42;101633.31;143717;631;47004;-72
2022/01/21 01:39:44;;;;;;;35.83;25.98;;;;;;;12.09;45.09;101637.63;143716;605;46922;-72
2022/01/21 01:50:38;;;;;;;33.43;21.90;;;;;;;12.16;45.57;101628.81;143716;606;46008;-72
2022/01/21 01:53:07;;;;;;;30.52;19.98;;;;;;;12.18;45.75;101613.31;143715;648;47004;-71
2022/01/21 01:55:34;;;;;;;27.05;18.75;;;;;;;12.20;46.10;101605.91;143717;615;47006;-72
2022/01/21 01:58:01;;;;;;;25.83;16.77;;;;;;;12.18;46.25;101602.56;143716;598;47002;-72
2022/01/21 02:00:30;;;;;;;28.52;19.50;;;;;;;12.22;46.35;101612.75;143717;607;46008;-72
2022/01/21 02:03:08;;;;;;;24.50;18.48;;;;;;;12.21;46.17;101604.88;143715;589;47004;-71
2022/01/21 02:05:34;;;;;;;41.90;25.92;;;;;;;12.25;46.02;101606.19;143716;616;47006;-71
2022/01/21 02:08:01;;;;;;;27.62;15.68;;;;;;;12.21;45.84;101600.31;143719;601;47000;-72
2022/01/21 02:10:27;;;;;;;25.17;16.73;;;;;;;12.22;45.31;101595.78;143715;596;47010;-72
2022/01/21 02:13:04;;;;;;;27.42;18.27;;;;;;;12.27;45.19;101598.72;143711;615;48925;-72
2022/01/21 02:15:35;;;;;;;31.35;19.55;;;;;;;12.30;45.70;101605.59;143719;590;47006;-71
2022/01/21 02:23:30;;;;;;;25.20;17.07;;;;;;;12.36;44.89;101588.66;143721;679;46008;-72
2022/01/21 02:25:56;;;;;;;26.12;18.85;;;;;;;12.39;45.61;101586.44;143718;608;46006;-72
2022/01/21 02:28:23;;;;;;;27.48;18.25;;;;;;;12.37;45.76;101580.41;143720;603;46006;-71
2022/01/21 02:30:53;;;;;;;22.55;14.80;;;;;;;12.30;45.12;101587.56;143718;572;46026;-72
2022/01/21 02:33:20;;;;;;;16.35;12.15;;;;;;;12.35;44.90;101579.78;143714;652;47004;-71
2022/01/21 02:35:46;;;;;;;23.92;13.02;;;;;;;12.43;44.80;101590.44;143718;700;47006;-71
2022/01/21 02:38:12;;;;;;;21.45;14.18;;;;;;;12.43;44.94;101584.22;143716;610;47002;-71
2022/01/21 02:40:39;;;;;;;18.77;13.45;;;;;;;12.44;44.53;101593.97;143718;635;46010;-71
2022/01/21 02:43:05;;;;;;;19.40;13.00;;;;;;;12.51;44.55;101586.81;143720;582;46014;-72
2022/01/21 02:45:31;;;;;;;23.45;13.90;;;;;;;12.51;44.92;101584.09;143718;590;46006;-71
2022/01/21 02:47:58;;;;;;;17.70;12.68;;;;;;;12.48;45.28;101583.63;143716;573;47004;-71
2022/01/21 02:50:24;;;;;;;21.17;12.90;;;;;;;12.49;45.31;101583.47;143719;582;47008;-71
2022/01/21 02:53:10;;;;;;;17.08;12.43;;;;;;;12.53;45.31;101578.50;143718;567;47002;-72
2022/01/21 02:55:36;;;;;;;19.23;12.57;;;;;;;12.53;45.56;101586.59;143718;595;46006;-71
2022/01/21 02:58:03;;;;;;;20.23;13.20;;;;;;;12.52;45.60;101579.53;143717;728;47002;-72
2022/01/21 03:00:29;;;;;;;19.12;13.55;;;;;;;12.51;45.62;101572.47;143717;582;46010;-71
2022/01/21 03:02:56;;;;;;;18.70;12.95;;;;;;;12.53;45.99;101584.72;143717;567;47002;-72
2022/01/21 03:05:23;;;;;;;21.73;14.30;;;;;;;12.53;45.77;101587.41;143718;581;46006;-72
2022/01/21 03:07:50;;;;;;;23.87;14.87;;;;;;;12.51;45.55;101589.50;143709;594;50921;-72
2022/01/21 03:10:16;;;;;;;20.25;13.77;;;;;;;12.53;45.79;101582.03;143716;648;47010;-73
2022/01/21 03:12:43;;;;;;;19.87;14.52;;;;;;;12.51;46.63;101570.62;143713;575;47004;-72
2022/01/21 03:15:09;;;;;;;23.30;14.85;;;;;;;12.47;47.33;101569.34;143717;650;46923;-72
2022/01/21 03:17:36;;;;;;;20.10;14.32;;;;;;;12.47;47.55;101565.78;143715;582;47002;-72
2022/01/21 03:20:05;;;;;;;21.48;15.65;;;;;;;12.46;47.37;101564.12;143717;592;46011;-72
2022/01/21 03:22:31;;;;;;;19.77;14.63;;;;;;;12.48;47.46;101562.94;143714;590;47004;-72
2022/01/21 03:24:57;;;;;;;24.02;19.52;;;;;;;12.52;47.43;101548.06;143717;593;46006;-71
2022/01/21 03:27:24;;;;;;;24.58;17.10;;;;;;;12.55;46.30;101544.12;143714;582;47004;-72
2022/01/21 03:29:50;;;;;;;22.08;16.02;;;;;;;12.59;46.60;101540.84;143719;595;46021;-73
2022/01/21 03:32:17;;;;;;;21.70;15.63;;;;;;;12.63;47.49;101530.50;143715;617;47004;-73
2022/01/21 03:34:43;;;;;;;20.77;15.55;;;;;;;12.66;46.88;101524.75;143719;607;46007;-73
2022/01/21 03:37:10;;;;;;;24.80;15.15;;;;;;;12.71;46.92;101513.38;143716;623;47002;-72
2022/01/21 03:39:36;;;;;;;22.50;16.15;;;;;;;12.70;47.79;101509.06;143717;587;47008;-71
2022/01/21 03:42:03;;;;;;;25.02;16.77;;;;;;;12.67;48.31;101509.44;143715;614;47004;-71
2022/01/21 03:44:29;;;;;;;24.95;18.35;;;;;;;12.67;47.67;101514.81;143718;649;46019;-72
2022/01/21 03:46:56;;;;;;;47.35;29.40;;;;;;;12.71;47.35;101503.44;143717;666;47000;-71
2022/01/21 03:49:22;;;;;;;47.17;28.58;;;;;;;12.70;47.43;101509.06;143717;605;46922;-71
2022/01/21 03:51:49;;;;;;;24.05;18.15;;;;;;;12.70;47.34;101509.06;143714;613;47004;-72
2022/01/21 03:54:15;;;;;;;23.55;16.25;;;;;;;12.70;47.39;101511.75;143717;579;46006;-71
2022/01/21 03:56:41;;;;;;;19.95;15.77;;;;;;;12.66;47.81;101503.19;143717;666;47002;-72
2022/01/21 03:59:08;;;;;;;20.42;15.00;;;;;;;12.62;47.79;101509.97;143717;667;46010;-71
2022/01/21 04:01:34;;;;;;;22.70;14.87;;;;;;;12.56;48.25;101510.78;143714;650;47004;-71
2022/01/21 04:04:01;;;;;;;22.75;15.50;;;;;;;12.53;48.39;101516.53;143719;647;46007;-71
2022/01/21 04:06:27;;;;;;;20.20;15.07;;;;;;;12.52;48.14;101520.25;143716;567;47002;-71
2022/01/21 04:08:53;;;;;;;23.48;15.30;;;;;;;12.55;47.85;101518.00;143718;621;47010;-71
2022/01/21 04:11:20;;;;;;;22.08;16.58;;;;;;;12.57;47.89;101523.22;143714;595;47004;-71
2022/01/21 04:13:46;;;;;;;24.52;15.55;;;;;;;12.55;47.73;101507.22;143718;645;46006;-71
2022/01/21 04:16:13;;;;;;;23.30;15.02;;;;;;;12.61;47.98;101502.09;143714;668;47004;-72
2022/01/21 04:18:39;;;;;;;22.50;14.75;;;;;;;12.56;48.65;101503.50;143718;625;46026;-71
2022/01/21 04:21:06;;;;;;;22.10;15.52;;;;;;;12.53;48.34;101503.06;143714;739;47004;-72
2022/01/21 04:23:32;;;;;;;21.12;15.57;;;;;;;12.59;48.61;101505.81;143718;693;46019;-72
2022/01/21 04:25:59;;;;;;;22.27;16.73;;;;;;;12.54;48.92;101510.12;143722;592;47000;-72
2022/01/21 04:28:25;;;;;;;26.12;17.05;;;;;;;12.56;49.56;101513.47;143717;635;47004;-72
2022/01/21 04:30:51;;;;;;;27.83;17.20;;;;;;;12.54;50.35;101510.12;143714;575;47004;-72
2022/01/21 04:33:18;;;;;;;21.73;15.93;;;;;;;12.52;50.37;101498.69;143718;573;46007;-72
2022/01/21 04:35:44;;;;;;;29.30;18.08;;;;;;;12.54;49.61;101504.75;143717;588;47002;-72
2022/01/21 04:38:13;;;;;;;24.85;17.00;;;;;;;12.60;49.87;101506.69;143715;616;47010;-72
2022/01/21 04:40:47;;;;;;;24.20;16.80;;;;;;;12.63;49.90;101510.84;143715;572;47002;-72
2022/01/21 04:48:42;;;;;;;23.17;15.70;;;;;;;12.54;51.35;101532.50;143718;583;46010;-72
2022/01/21 04:53:53;;;;;;;27.25;20.08;;;;;;;12.53;51.68;101530.84;143719;623;46006;-73
2022/01/21 04:56:20;;;;;;;31.80;21.00;;;;;;;12.55;50.32;101533.34;143715;633;47002;-72
2022/01/21 04:58:47;;;;;;;29.50;19.95;;;;;;;12.61;50.71;101531.75;143716;612;47010;-72
2022/01/21 05:01:14;;;;;;;27.50;18.65;;;;;;;12.64;50.59;101525.97;143715;762;47004;-72
2022/01/21 05:03:41;;;;;;;24.80;20.05;;;;;;;12.59;50.18;101540.84;143718;650;46007;-72
2022/01/21 05:06:08;;;;;;;26.30;19.02;;;;;;;12.59;50.21;101526.56;143715;652;47004;-73
2022/01/21 05:08:50;;;;;;;27.83;20.08;;;;;;;12.61;51.25;101524.50;143716;586;46922;-74
2022/01/21 05:11:17;;;;;;;26.35;19.83;;;;;;;12.58;51.52;101528.41;143716;569;47004;-72
2022/01/21 05:13:54;;;;;;;28.95;22.52;;;;;;;12.57;51.57;101529.44;143719;677;46006;-72
2022/01/21 05:16:37;;;;;;;31.05;20.42;;;;;;;12.55;52.01;101525.28;143717;612;47000;-71
2022/01/21 05:19:13;;;;;;;25.37;18.15;;;;;;;12.54;51.73;101520.91;143717;579;47011;-72
2022/01/21 05:21:39;;;;;;;40.72;25.83;;;;;;;12.58;50.84;101523.03;143715;622;47004;-72
2022/01/21 05:24:06;;;;;;;28.05;19.80;;;;;;;12.62;50.51;101520.75;143718;564;47006;-73
2022/01/21 05:26:37;;;;;;;31.60;21.92;;;;;;;12.54;50.42;101529.00;143715;572;47002;-73
2022/01/21 05:29:10;;;;;;;29.27;20.90;;;;;;;12.58;50.79;101531.09;143716;603;47010;-73
2022/01/21 05:31:37;;;;;;;34.30;22.27;;;;;;;12.65;50.88;101531.16;143716;651;47004;-72
2022/01/21 05:34:04;;;;;;;30.37;22.65;;;;;;;12.70;50.95;101538.69;143718;592;46925;-73
2022/01/21 05:36:31;;;;;;;37.22;27.65;;;;;;;12.65;50.86;101541.13;143717;647;47002;-74
2022/01/21 05:39:00;;;;;;;38.45;26.42;;;;;;;12.66;50.70;101537.41;143719;572;46024;-73
2022/01/21 05:41:27;;;;;;;31.00;24.00;;;;;;;12.68;51.87;101535.34;143715;571;47004;-72
2022/01/21 05:44:01;;;;;;;34.70;25.02;;;;;;;12.70;51.91;101538.69;143719;694;46006;-72
2022/01/21 05:46:49;;;;;;;31.90;23.38;;;;;;;12.69;51.69;101534.34;143717;643;47004;-72
2022/01/21 05:49:15;;;;;;;37.72;23.92;;;;;;;12.64;52.16;101534.87;143720;616;46008;-71
2022/01/21 05:51:42;;;;;;;31.70;23.90;;;;;;;12.62;52.25;101533.41;143714;636;47004;-72
2022/01/21 05:54:10;;;;;;;42.30;30.92;;;;;;;12.58;51.59;101535.66;143716;626;46007;-71
2022/01/21 05:56:38;;;;;;;44.85;33.78;;;;;;;12.60;51.32;101539.00;143717;609;47002;-72
2022/01/21 05:59:05;;;;;;;44.25;32.03;;;;;;;12.58;51.67;101531.09;143717;724;47008;-71
2022/01/21 06:01:36;;;;;;;40.35;30.10;;;;;;;12.57;51.77;101532.13;143713;654;47004;-71
2022/01/21 06:04:03;;;;;;;42.85;28.73;;;;;;;12.56;51.58;101535.84;143717;592;46006;-71
2022/01/21 06:06:30;;;;;;;45.25;30.70;;;;;;;12.54;51.73;101524.41;143715;682;47002;-73
2022/01/21 06:08:56;;;;;;;40.88;29.80;;;;;;;12.53;52.41;101514.66;143718;589;47009;-71
2022/01/21 06:11:23;;;;;;;41.45;28.23;;;;;;;12.48;52.60;101517.12;143717;570;47004;-71
2022/01/21 06:13:50;;;;;;;37.83;29.75;;;;;;;12.51;52.28;101522.13;143719;604;46006;-71
2022/01/21 06:16:18;;;;;;;41.55;30.25;;;;;;;12.53;51.87;101494.97;143717;611;47002;-71
2022/01/21 06:18:45;;;;;;;46.83;32.25;;;;;;;12.54;52.18;101502.03;143719;681;46011;-71
2022/01/21 06:21:12;;;;;;;44.90;34.08;;;;;;;12.51;51.94;101505.97;143716;631;47004;-71
2022/01/21 06:23:38;;;;;;;47.58;32.20;;;;;;;12.51;52.07;101495.19;143719;592;46017;-71
2022/01/21 06:26:05;;;;;;;41.22;26.20;;;;;;;12.52;51.87;101496.84;143718;577;47000;-73
2022/01/21 06:28:32;;;;;;;39.53;26.27;;;;;;;12.52;51.93;101502.25;143719;567;46921;-71
2022/01/21 06:30:58;;;;;;;44.28;30.27;;;;;;;12.55;51.47;101507.22;143715;620;47004;-71
2022/01/21 06:33:24;;;;;;;48.63;32.13;;;;;;;12.57;51.42;101504.34;143719;603;46007;-72
2022/01/21 06:35:52;;;;;;;61.58;39.55;;;;;;;12.54;51.69;101520.91;143715;599;47004;-72
2022/01/21 06:38:21;;;;;;;75.18;47.70;;;;;;;12.52;51.52;101515.72;143717;572;47010;-72
2022/01/21 06:40:48;;;;;;;57.08;38.08;;;;;;;12.52;51.63;101517.56;143716;610;47004;-72
2022/01/21 06:43:16;;;;;;;48.20;32.08;;;;;;;12.52;51.65;101518.41;143719;659;46006;-72
2022/01/21 06:45:43;;;;;;;44.08;29.37;;;;;;;12.63;51.25;101532.41;143716;592;47002;-72
2022/01/21 06:48:10;;;;;;;46.17;27.67;;;;;;;12.75;50.74;101530.84;143720;581;47008;-71
2022/01/21 06:50:39;;;;;;;44.67;26.87;;;;;;;12.88;50.37;101530.97;143716;573;47004;-74
2022/01/21 06:53:06;;;;;;;34.85;23.77;;;;;;;12.94;50.48;101528.53;143720;751;47006;-75
2022/01/21 06:55:32;;;;;;;39.65;24.02;;;;;;;13.02;50.22;101529.22;143718;658;47002;-74
2022/01/21 06:57:59;;;;;;;34.72;24.40;;;;;;;13.12;49.94;101517.28;143719;595;47008;-74
2022/01/21 07:00:25;;;;;;;39.15;23.02;;;;;;;13.16;49.90;101519.38;143717;568;47004;-75
2022/01/21 07:02:53;;;;;;;34.35;24.70;;;;;;;13.27;49.60;101519.84;143721;573;46007;-73
2022/01/21 07:05:22;;;;;;;32.97;22.10;;;;;;;13.32;49.73;101504.78;143719;615;47002;-72
2022/01/21 07:07:49;;;;;;;36.25;23.67;;;;;;;13.35;49.62;101504.34;143717;786;47008;-74
2022/01/21 07:10:16;;;;;;;30.27;22.33;;;;;;;13.42;49.23;101500.91;143715;653;47005;-73
2022/01/21 07:12:44;;;;;;;35.00;22.00;;;;;;;13.43;49.88;101497.16;143718;676;46924;-72
2022/01/21 07:15:15;;;;;;;36.33;27.87;;;;;;;13.48;49.33;101492.03;143720;582;47002;-74
2022/01/21 07:17:43;;;;;;;33.67;25.48;;;;;;;13.51;51.07;101491.59;143719;686;46011;-71
2022/01/21 07:20:10;;;;;;;45.83;28.92;;;;;;;13.59;49.42;101496.84;143716;670;47004;-71
2022/01/21 07:22:38;;;;;;;34.28;25.52;;;;;;;13.64;50.05;101491.69;143718;618;46006;-71
2022/01/21 07:25:05;;;;;;;30.00;22.13;;;;;;;13.72;49.57;101485.28;143717;602;47004;-71
2022/01/21 07:27:32;;;;;;;29.70;22.10;;;;;;;13.80;49.16;101485.09;143717;594;47008;-71
2022/01/21 07:29:58;;;;;;;29.98;22.20;;;;;;;13.91;48.78;101482.88;143718;641;47004;-72
2022/01/21 07:32:24;;;;;;;31.62;20.02;;;;;;;14.04;48.29;101484.75;143718;620;47006;-71
2022/01/21 07:34:51;;;;;;;33.15;23.30;;;;;;;14.14;47.90;101477.13;143719;640;47002;-71
2022/01/21 07:37:17;;;;;;;39.00;26.40;;;;;;;14.25;48.07;101473.81;143721;655;46010;-71
2022/01/21 07:39:43;;;;;;;31.17;21.80;;;;;;;14.40;47.82;101472.81;143717;593;47004;-72
2022/01/21 07:42:10;;;;;;;30.58;20.95;;;;;;;14.54;48.08;101462.84;143719;694;47006;-71
2022/01/21 07:44:36;;;;;;;28.58;20.10;;;;;;;14.73;47.51;101457.69;143719;622;47002;-71
2022/01/21 07:47:04;;;;;;;30.45;19.00;;;;;;;14.84;47.65;101460.59;143720;626;46010;-71
2022/01/21 07:49:31;;;;;;;28.77;18.20;;;;;;;14.96;47.64;101447.28;143716;656;47004;-71
2022/01/21 07:51:58;;;;;;;29.23;17.48;;;;;;;15.08;47.13;101457.44;143720;626;47006;-71
2022/01/21 07:54:24;;;;;;;28.42;19.33;;;;;;;15.16;46.49;101455.34;143720;828;47000;-71
2022/01/21 07:56:51;;;;;;;19.37;13.77;;;;;;;15.27;46.12;101451.19;143719;617;46026;-71
2022/01/21 07:59:17;;;;;;;21.58;14.00;;;;;;;15.32;45.97;101437.00;143717;577;47004;-71
2022/01/21 08:01:44;;;;;;;18.10;13.27;;;;;;;15.41;45.74;101441.16;143720;636;46023;-71
2022/01/21 08:04:11;;;;;;;20.10;13.50;;;;;;;15.42;45.41;101442.81;143721;694;47002;-71
2022/01/21 08:06:38;;;;;;;22.60;17.10;;;;;;;15.41;45.57;101437.59;143717;673;47010;-71
2022/01/21 08:09:05;;;;;;;25.73;18.35;;;;;;;15.38;45.79;101444.28;143716;638;47004;-73
2022/01/21 08:11:32;;;;;;;25.42;17.90;;;;;;;15.43;45.64;101439.06;143718;657;47006;-71
2022/01/21 08:13:58;;;;;;;38.55;24.98;;;;;;;15.52;45.19;101445.06;143719;667;47002;-71
2022/01/21 08:16:25;;;;;;;27.75;21.52;;;;;;;15.61;45.54;101446.47;143718;584;47010;-71
2022/01/21 08:18:54;;;;;;;24.10;18.83;;;;;;;15.71;45.15;101448.75;143717;567;47004;-71
2022/01/21 08:21:20;;;;;;;22.65;16.25;;;;;;;15.81;44.79;101456.41;143722;662;46008;-71
2022/01/21 08:23:49;;;;;;;21.52;14.63;;;;;;;15.93;44.32;101444.91;143717;621;47006;-72
2022/01/21 08:26:20;;;;;;;18.23;12.18;;;;;;;16.01;43.86;101452.78;143719;618;46013;-71
2022/01/21 08:28:47;;;;;;;14.13;10.48;;;;;;;16.14;43.30;101452.72;143718;682;47006;-72
2022/01/21 08:31:13;;;;;;;14.65;10.13;;;;;;;16.26;43.18;101450.16;143722;644;47006;-71
2022/01/21 08:33:40;;;;;;;8.50;6.53;;;;;;;16.34;42.84;101449.88;143721;578;47004;-71
2022/01/21 08:36:10;;;;;;;9.88;7.78;;;;;;;16.47;42.31;101453.56;143723;631;47010;-71
2022/01/21 08:38:36;;;;;;;11.40;8.32;;;;;;;16.58;42.37;101458.25;143721;580;47007;-71
2022/01/21 08:41:03;;;;;;;13.98;9.02;;;;;;;16.71;42.46;101449.19;143724;608;46008;-72
2022/01/21 08:43:29;;;;;;;12.27;8.15;;;;;;;16.82;41.06;101455.78;143724;648;47006;-71
2022/01/21 08:45:56;;;;;;;10.45;6.43;;;;;;;16.92;39.67;101460.69;143723;587;46928;-71
2022/01/21 08:48:22;;;;;;;10.90;7.95;;;;;;;17.04;39.79;101456.22;143717;582;47006;-72
2022/01/21 08:50:49;;;;;;;11.70;8.93;;;;;;;17.21;39.62;101456.44;143724;627;46008;-71
2022/01/21 08:56:00;;;;;;;14.43;9.73;;;;;;;17.43;38.51;101451.44;143722;603;47008;-71
2022/01/21 08:58:26;;;;;;;13.73;9.25;;;;;;;17.60;39.13;101444.53;143724;590;47006;-71
2022/01/21 09:00:53;;;;;;;13.48;9.27;;;;;;;17.71;38.37;101449.22;143726;580;46008;-71
2022/01/21 09:03:20;;;;;;;13.10;10.35;;;;;;;17.81;38.67;101435.91;143723;621;47004;-71
2022/01/21 09:05:50;;;;;;;11.20;7.37;;;;;;;17.97;37.86;101434.44;143720;681;46012;-71
2022/01/21 09:08:23;;;;;;;11.98;8.85;;;;;;;18.11;37.10;101431.56;143723;591;47007;-72
2022/01/21 09:10:50;;;;;;;7.22;4.70;;;;;;;18.21;36.46;101431.00;143723;627;46008;-71
2022/01/21 09:13:17;;;;;;;5.65;3.92;;;;;;;18.37;36.62;101433.06;143720;572;47004;-72
2022/01/21 09:15:43;;;;;;;7.43;3.53;;;;;;;18.54;36.40;101435.91;143723;584;47011;-71
2022/01/21 09:18:10;;;;;;;4.97;3.60;;;;;;;18.69;35.87;101419.13;143724;573;47004;-72
2022/01/21 09:20:37;;;;;;;7.47;3.97;;;;;;;18.88;36.00;101425.31;143723;602;47004;-72
2022/01/21 09:23:05;;;;;;;4.30;3.00;;;;;;;19.05;35.78;101424.59;143725;583;47009;-72
2022/01/21 09:25:32;;;;;;;3.08;2.20;;;;;;;19.46;34.16;101420.00;143723;583;47010;-73
2022/01/21 09:27:59;;;;;;;6.32;4.30;;;;;;;20.25;32.94;101428.62;143723;631;47006;-72
2022/01/21 09:30:25;;;;;;;12.18;5.37;;;;;;;23.52;28.24;101420.03;143725;602;46009;-71
2022/01/21 09:32:52;;;;;;;4.10;2.87;;;;;;;29.79;19.92;101416.59;143720;601;47004;-73
2022/01/21 09:35:19;;;;;;;5.53;2.80;;;;;;;33.86;15.67;101421.59;143725;591;46029;-73
2022/01/21 09:37:45;;;;;;;4.50;2.90;;;;;;;36.39;13.20;101409.22;143718;573;47006;-74
2022/01/21 09:40:13;;;;;;;5.53;2.90;;;;;;;38.09;11.88;101391.81;143721;659;47008;-73
2022/01/21 09:42:39;;;;;;;5.10;3.00;;;;;;;39.41;11.16;101385.91;143725;601;47006;-72
2022/01/21 09:45:09;;;;;;;3.12;2.30;;;;;;;40.24;10.29;101377.59;143724;586;46012;-73
2022/01/21 09:47:47;;;;;;;3.53;2.42;;;;;;;41.03;9.24;101372.56;143723;581;47006;-73
2022/01/21 09:50:20;;;;;;;3.87;2.17;;;;;;;42.03;8.81;101364.84;143724;635;46008;-73
2022/01/21 09:52:48;;;;;;;3.25;2.45;;;;;;;42.63;8.58;101358.81;143721;884;48004;-74
2022/01/21 09:55:17;;;;;;;4.85;2.92;;;;;;;43.31;7.89;101355.00;143724;981;46013;-73
2022/01/21 09:57:52;;;;;;;4.35;2.65;;;;;;;44.00;7.96;101351.75;143725;674;47004;-74
2022/01/21 10:00:21;;;;;;;3.15;2.47;;;;;;;44.59;7.80;101335.91;143722;567;47007;-73
2022/01/21 10:02:52;;;;;;;4.18;2.78;;;;;;;45.12;7.44;101340.16;143720;580;47002;-73
2022/01/21 10:05:19;;;;;;;4.45;3.10;;;;;;;45.72;6.72;101322.72;143724;597;47010;-74
2022/01/21 10:07:48;;;;;;;3.08;2.70;;;;;;;46.15;6.57;101331.78;143725;600;47002;-73
2022/01/21 10:10:16;;;;;;;4.37;2.40;;;;;;;46.68;6.10;101319.84;143723;580;46006;-73
2022/01/21 10:12:46;;;;;;;4.72;2.40;;;;;;;46.91;5.94;101327.53;143725;663;47002;-75
2022/01/21 10:15:13;;;;;;;4.10;2.47;;;;;;;47.18;5.80;101335.13;143724;567;46922;-74
2022/01/21 10:17:58;;;;;;;4.18;2.22;;;;;;;47.43;5.34;101328.03;143724;567;47004;-74
2022/01/21 10:20:25;;;;;;;4.72;2.53;;;;;;;44.05;7.01;101325.88;143727;572;46006;-74
2022/01/21 10:23:05;;;;;;;2.50;2.28;;;;;;;45.80;6.56;101320.59;143724;643;47002;-73
2022/01/21 10:25:32;;;;;;;4.45;2.50;;;;;;;45.22;6.99;101312.88;143723;573;47010;-74
2022/01/21 10:28:13;;;;;;;5.05;3.00;;;;;;;46.70;5.63;101318.16;143717;573;47004;-73
2022/01/21 10:30:41;;;;;;;3.50;2.47;;;;;;;44.82;7.23;101301.22;143721;586;47006;-74
2022/01/21 10:33:26;;;;;;;5.43;2.10;;;;;;;38.30;10.72;101302.44;143725;615;47004;-73
2022/01/21 10:36:08;;;;;;;4.75;2.10;;;;;;;34.13;14.10;101302.34;143723;622;47008;-74
2022/01/21 10:38:41;;;;;;;3.22;2.25;;;;;;;33.56;14.46;101298.31;143724;573;47002;-74
2022/01/21 10:41:14;;;;;;;4.60;2.42;;;;;;;33.44;14.33;101295.47;143724;582;46006;-74
2022/01/21 10:43:41;;;;;;;2.95;1.80;;;;;;;33.45;14.68;101292.34;143726;580;47002;-73
2022/01/21 10:46:13;;;;;;;3.92;1.80;;;;;;;34.99;13.39;101285.94;143724;614;46922;-74
2022/01/21 10:49:15;;;;;;;4.15;1.73;;;;;;;38.79;10.41;101278.31;143722;574;47004;-73
2022/01/21 10:51:49;;;;;;;2.70;1.87;;;;;;;36.66;11.75;101266.81;143724;590;47006;-73
2022/01/21 10:54:19;;;;;;;4.35;2.20;;;;;;;33.28;14.26;101259.91;143722;648;46015;-73
2022/01/21 10:57:24;;;;;;;7.85;3.47;;;;;;;30.00;17.59;101245.25;143723;592;47008;-73
2022/01/21 11:00:08;;;;;;;6.05;4.70;;;;;;;28.26;19.87;101249.69;143722;570;47004;-74
2022/01/21 11:02:46;;;;;;;5.20;3.10;;;;;;;27.09;21.36;101254.91;143722;700;47006;-74
2022/01/21 11:05:28;;;;;;;6.35;4.28;;;;;;;26.35;22.43;101258.03;143722;585;47004;-74
2022/01/21 11:08:08;;;;;;;9.10;4.43;;;;;;;26.00;23.04;101260.84;143726;567;47010;-74
2022/01/21 11:10:47;;;;;;;9.18;4.37;;;;;;;26.97;21.83;101259.22;143730;695;47004;-74
2022/01/21 11:13:37;;;;;;;4.50;2.80;;;;;;;25.87;22.80;101254.09;143731;568;46006;-74
2022/01/21 11:16:16;;;;;;;4.70;3.47;;;;;;;25.01;23.98;101253.59;143734;591;47002;-74
2022/01/21 11:19:07;;;;;;;6.82;3.65;;;;;;;24.28;25.30;101253.00;143730;619;47010;-74
2022/01/21 11:21:48;;;;;;;4.25;3.17;;;;;;;23.69;25.92;101247.03;143725;569;47004;-74
2022/01/21 11:24:17;;;;;;;7.50;3.70;;;;;;;23.24;26.23;101254.94;143731;596;46006;-73
2022/01/21 11:26:44;;;;;;;4.78;2.78;;;;;;;22.90;27.32;101255.38;143732;597;47002;-74
2022/01/21 11:29:11;;;;;;;2.75;2.30;;;;;;;22.60;26.94;101246.78;143731;649;47010;-74
2022/01/21 11:31:38;;;;;;;7.37;5.28;;;;;;;22.29;27.56;101243.84;143730;604;47004;-73
2022/01/21 11:34:04;;;;;;;6.40;5.10;;;;;;;22.07;27.81;101244.81;143731;598;46924;-74
2022/01/21 11:36:31;;;;;;;8.15;4.95;;;;;;;21.89;27.53;101237.03;143733;573;47004;-74
2022/01/21 11:38:58;;;;;;;4.78;4.18;;;;;;;21.67;27.86;101239.88;143731;567;46011;-74
2022/01/21 11:41:25;;;;;;;3.87;2.90;;;;;;;21.51;28.03;101231.50;143733;666;47002;-75
2022/01/21 11:43:58;;;;;;;7.68;3.85;;;;;;;21.51;28.00;101237.78;143732;566;47006;-74
2022/01/21 11:46:47;;;;;;;8.77;4.60;;;;;;;21.62;28.10;101233.25;143725;660;47004;-73
2022/01/21 11:49:18;;;;;;;3.70;3.17;;;;;;;22.03;27.55;101237.41;143731;685;46020;-74
2022/01/21 11:51:45;;;;;;;6.70;3.33;;;;;;;22.15;27.28;101227.06;143730;589;47002;-73
2022/01/21 11:54:24;;;;;;;2.97;2.53;;;;;;;22.31;27.32;101224.44;143728;588;46006;-75
2022/01/21 11:57:04;;;;;;;6.37;2.83;;;;;;;22.24;27.19;101217.25;143733;566;46019;-74
2022/01/21 11:59:58;;;;;;;5.15;3.25;;;;;;;22.02;28.16;101219.34;143727;581;47008;-74
2022/01/21 12:02:35;;;;;;;4.07;3.10;;;;;;;21.73;28.42;101219.66;143729;582;47004;-73
2022/01/21 12:05:07;;;;;;;4.70;3.05;;;;;;;21.57;28.89;101213.25;143728;570;46006;-74
2022/01/21 12:07:44;;;;;;;6.55;3.30;;;;;;;21.50;29.03;101199.78;143729;595;47002;-73
2022/01/21 12:10:31;;;;;;;3.83;2.50;;;;;;;21.39;29.15;101206.22;143729;984;46010;-74